TW-0025 weather

Taipei City Government Fire Bureau Helipad
Taipei, Taipei (municipality), Taiwan

Public forecast

Using degrees Celsius for public forecast. Weather courtesy of forecast.io.

Closest aviation weather report (METAR) to Taipei City Government Fire Bureau Helipad

Closest report is Taipei Songshan Airport, 2.0 nm (3.6 km) NNW. Retrieved 2020/02/17 06:30 UTC (0 seconds ago):

RCSS 170630Z 03006KT 280V090 9999 FEW025 14/02 Q1028 NOSIG RMK A3036

Closest aviation forecast (TAF) to Taipei City Government Fire Bureau Helipad

Closest forecast is Taipei Songshan Airport, 2.0 nm (3.6 km) NNW. Retrieved 2020/02/17 06:00 UTC (27 minutes ago):

TAF RCSS 170500Z 1706/1806 08010KT 9999 FEW015 BKN032